createdAt,value
2022-11-10T00:00:43.564Z,28.23
2022-11-10T00:03:12.678Z,30.20
2022-11-10T00:05:41.325Z,28.90
2022-11-10T00:08:10.749Z,28.17
2022-11-10T00:10:55.179Z,30.70
2022-11-10T00:13:23.968Z,29.10
2022-11-10T00:16:10.129Z,26.83
2022-11-10T00:18:38.546Z,27.10
2022-11-10T00:21:07.851Z,31.40
2022-11-10T00:23:36.273Z,28.30
2022-11-10T00:26:06.468Z,28.93
2022-11-10T00:28:34.936Z,30.83
2022-11-10T00:31:07.356Z,24.33
2022-11-10T00:33:36.367Z,26.63
2022-11-10T00:36:04.870Z,29.23
2022-11-10T00:38:33.311Z,29.40
2022-11-10T00:41:01.881Z,29.37
2022-11-10T00:43:32.710Z,28.73
2022-11-10T00:46:01.388Z,27.07
2022-11-10T00:48:29.758Z,29.67
2022-11-10T00:50:58.603Z,29.83
2022-11-10T00:53:27.121Z,32.27
2022-11-10T00:55:55.611Z,30.70
2022-11-10T00:58:24.033Z,30.50
2022-11-10T01:00:53.928Z,35.60
2022-11-10T01:03:22.905Z,35.33
2022-11-10T01:05:51.581Z,32.30
2022-11-10T01:08:19.891Z,33.33
2022-11-10T01:10:48.381Z,34.40
2022-11-10T01:13:16.897Z,30.53
2022-11-10T01:15:45.548Z,33.80
2022-11-10T01:18:15.272Z,30.47
2022-11-10T01:20:43.751Z,36.20
2022-11-10T01:23:12.509Z,31.03
2022-11-10T01:25:40.990Z,34.17
2022-11-10T01:28:09.521Z,30.53
2022-11-10T01:30:38.009Z,38.50
2022-11-10T01:33:06.432Z,50.17
2022-11-10T01:35:36.613Z,58.00
2022-11-10T01:38:05.072Z,54.97
2022-11-10T01:40:34.050Z,39.23
2022-11-10T01:43:02.492Z,39.80
2022-11-10T01:45:43.771Z,43.50
2022-11-10T01:48:14.264Z,41.07
2022-11-10T01:50:44.446Z,36.50
2022-11-10T01:53:15.123Z,36.17
2022-11-10T01:55:44.677Z,33.30
2022-11-10T01:58:14.708Z,32.10
2022-11-10T02:00:43.334Z,33.03
2022-11-10T02:03:14.117Z,35.80
2022-11-10T02:05:44.597Z,33.93
2022-11-10T02:08:14.845Z,35.90
2022-11-10T02:10:43.265Z,36.20
2022-11-10T02:13:12.497Z,32.07
2022-11-10T02:15:41.178Z,39.83
2022-11-10T02:18:09.614Z,37.83
2022-11-10T02:20:38.082Z,34.40
2022-11-10T02:23:37.323Z,34.17
2022-11-10T02:26:06.804Z,34.03
2022-11-10T02:28:35.884Z,38.33
2022-11-10T02:31:04.852Z,41.67
2022-11-10T02:33:33.359Z,36.60
2022-11-10T02:36:01.818Z,38.40
2022-11-10T02:38:31.664Z,36.47
2022-11-10T02:41:00.112Z,36.23
2022-11-10T02:43:28.542Z,33.13
2022-11-10T02:45:56.947Z,38.80
2022-11-10T02:48:25.400Z,41.20
2022-11-10T02:50:53.925Z,44.73
2022-11-10T02:53:22.667Z,39.53
2022-11-10T02:55:52.809Z,36.70
2022-11-10T02:58:21.255Z,40.87
2022-11-10T03:00:49.805Z,35.80
2022-11-10T03:03:18.394Z,36.83
2022-11-10T03:05:46.858Z,37.03
2022-11-10T03:08:15.382Z,38.57
2022-11-10T03:10:43.891Z,36.27
2022-11-10T03:13:13.736Z,39.90
2022-11-10T03:15:42.149Z,39.20
2022-11-10T03:18:10.591Z,40.60
2022-11-10T03:20:39.192Z,39.40
2022-11-10T03:23:07.688Z,43.80
2022-11-10T03:25:37.346Z,38.40
2022-11-10T03:28:05.998Z,40.70
2022-11-10T03:30:35.928Z,38.33
2022-11-10T03:33:04.365Z,39.87
2022-11-10T03:35:32.924Z,40.10
2022-11-10T03:38:01.328Z,38.57
2022-11-10T03:40:29.839Z,36.67
2022-11-10T03:42:58.301Z,37.90
2022-11-10T03:45:26.712Z,39.80
2022-11-10T03:47:56.496Z,32.77
2022-11-10T03:50:24.904Z,38.10
2022-11-10T03:52:53.363Z,38.67
2022-11-10T03:55:22.048Z,38.43
2022-11-10T03:57:50.492Z,41.33
2022-11-10T04:00:18.951Z,37.70
2022-11-10T04:02:47.519Z,41.17
2022-11-10T04:05:35.184Z,36.20
2022-11-10T04:08:21.591Z,38.20
2022-11-10T04:10:51.524Z,36.40
2022-11-10T04:13:37.660Z,35.63
2022-11-10T04:16:06.131Z,39.20
2022-11-10T04:18:34.573Z,38.83
2022-11-10T04:21:05.091Z,39.40
2022-11-10T04:23:36.197Z,38.03
2022-11-10T04:26:23.158Z,38.70
2022-11-10T04:28:52.672Z,35.50
2022-11-10T04:31:21.952Z,35.70
2022-11-10T04:33:50.724Z,33.70
2022-11-10T04:36:21.915Z,32.63
2022-11-10T04:38:50.324Z,34.37
2022-11-10T04:41:18.868Z,32.63
2022-11-10T04:43:47.302Z,34.17
2022-11-10T04:46:20.814Z,31.93
2022-11-10T04:48:49.597Z,32.77
2022-11-10T04:51:18.225Z,37.67
2022-11-10T04:53:48.065Z,31.53
2022-11-10T04:56:17.142Z,30.63
2022-11-10T04:58:45.939Z,29.60
2022-11-10T05:01:14.925Z,29.40
2022-11-10T05:03:43.793Z,26.03
2022-11-10T05:06:12.805Z,26.03
2022-11-10T05:08:41.896Z,28.00
2022-11-10T05:11:12.270Z,24.07
2022-11-10T05:13:41.147Z,29.97
2022-11-10T05:16:10.033Z,30.20
2022-11-10T05:18:38.460Z,28.10
2022-11-10T05:21:06.948Z,50.00
2022-11-10T05:23:41.963Z,107.13
2022-11-10T05:26:12.774Z,38.63
2022-11-10T05:28:41.558Z,34.20
2022-11-10T05:31:10.250Z,32.53
2022-11-10T05:33:38.995Z,29.67
2022-11-10T05:36:08.573Z,31.53
2022-11-10T05:38:42.880Z,27.70
2022-11-10T05:41:13.631Z,29.30
2022-11-10T05:43:42.053Z,28.70
2022-11-10T05:46:10.514Z,26.60
2022-11-10T05:48:38.901Z,28.43
2022-11-10T05:51:07.602Z,24.50
2022-11-10T05:53:36.046Z,22.90
2022-11-10T05:56:04.433Z,25.50
2022-11-10T05:58:34.282Z,26.13
2022-11-10T06:01:02.717Z,26.73
2022-11-10T06:03:31.216Z,25.93
2022-11-10T06:05:59.767Z,26.33
2022-11-10T06:08:28.205Z,25.37
2022-11-10T06:10:56.639Z,23.20
2022-11-10T06:13:25.435Z,22.70
2022-11-10T06:15:55.513Z,23.20
2022-11-10T06:18:23.998Z,25.93
2022-11-10T06:20:52.556Z,24.87
2022-11-10T06:23:21.429Z,26.63
2022-11-10T06:25:50.083Z,22.73
2022-11-10T06:28:18.465Z,23.00
2022-11-10T06:30:46.898Z,22.77
2022-11-10T06:33:16.688Z,26.37
2022-11-10T06:35:45.083Z,23.43
2022-11-10T06:38:13.637Z,26.27
2022-11-10T06:40:42.042Z,26.63
2022-11-10T06:43:10.597Z,23.67
2022-11-10T06:45:39.048Z,26.07
2022-11-10T06:48:08.767Z,24.40
2022-11-10T06:50:38.594Z,26.37
2022-11-10T06:53:07.084Z,24.80
2022-11-10T06:55:35.492Z,24.83
2022-11-10T06:58:03.912Z,24.93
2022-11-10T07:00:32.466Z,24.00
2022-11-10T07:03:01.848Z,22.60
2022-11-10T07:05:30.262Z,25.53
2022-11-10T07:08:03.096Z,20.17
2022-11-10T07:10:31.513Z,23.03
2022-11-10T07:13:00.204Z,20.40
2022-11-10T07:15:28.926Z,21.33
2022-11-10T07:17:57.408Z,19.40
2022-11-10T07:20:26.248Z,21.57
2022-11-10T07:23:00.739Z,22.80
2022-11-10T07:25:29.559Z,23.77
2022-11-10T07:27:58.386Z,21.20
2022-11-10T07:30:26.829Z,20.47
2022-11-10T07:33:02.040Z,20.33
2022-11-10T07:35:31.158Z,26.10
2022-11-10T07:38:03.442Z,19.70
2022-11-10T07:40:32.219Z,21.30
2022-11-10T07:43:00.726Z,19.80
2022-11-10T07:45:29.392Z,20.97
2022-11-10T07:48:00.702Z,18.33
2022-11-10T07:50:29.061Z,18.17
2022-11-10T07:53:05.425Z,19.23
2022-11-10T07:55:33.853Z,17.20
2022-11-10T07:58:02.633Z,17.97
2022-11-10T08:00:31.155Z,18.83
2022-11-10T08:03:03.735Z,19.97
2022-11-10T08:05:32.613Z,19.00
2022-11-10T08:08:01.283Z,18.80
2022-11-10T08:10:31.578Z,20.20
2022-11-10T08:13:00.773Z,20.13
2022-11-10T08:15:30.018Z,20.73
2022-11-10T08:18:00.805Z,22.27
2022-11-10T08:20:29.512Z,21.63
2022-11-10T08:23:01.269Z,21.87
2022-11-10T08:25:35.157Z,24.10
2022-11-10T08:28:05.335Z,28.23
2022-11-10T08:30:33.837Z,26.40
2022-11-10T08:33:03.135Z,20.83
2022-11-10T08:35:33.003Z,18.63
2022-11-10T08:38:09.459Z,17.37
2022-11-10T08:40:40.085Z,14.57
2022-11-10T08:43:08.959Z,14.87
2022-11-10T08:45:37.462Z,12.20
2022-11-10T08:48:06.674Z,11.47
2022-11-10T08:50:35.072Z,12.57
2022-11-10T08:53:03.590Z,11.73
2022-11-10T08:55:32.312Z,13.07
2022-11-10T08:58:02.611Z,12.00
2022-11-10T09:00:31.677Z,16.47
2022-11-10T09:03:05.593Z,15.93
2022-11-10T09:05:34.150Z,12.97
2022-11-10T09:08:02.603Z,16.97
2022-11-10T09:10:31.063Z,16.07
2022-11-10T09:13:02.411Z,15.20
2022-11-10T09:15:31.203Z,14.00
2022-11-10T09:18:00.559Z,17.83
2022-11-10T09:20:29.712Z,14.67
2022-11-10T09:22:58.158Z,15.33
2022-11-10T09:25:26.601Z,18.33
2022-11-10T09:27:55.053Z,17.60
2022-11-10T09:30:25.414Z,17.30
2022-11-10T09:32:55.327Z,18.70
2022-11-10T09:35:23.745Z,15.60
2022-11-10T09:37:52.238Z,17.50
2022-11-10T09:40:22.528Z,17.63
2022-11-10T09:42:51.300Z,17.93
2022-11-10T09:45:23.265Z,16.80
2022-11-10T09:47:58.504Z,22.17
2022-11-10T09:50:31.663Z,20.13
2022-11-10T09:53:01.554Z,18.47
2022-11-10T09:55:33.601Z,26.27
2022-11-10T09:58:02.508Z,19.53
2022-11-10T10:00:33.215Z,21.63
2022-11-10T10:03:04.054Z,23.30
2022-11-10T10:05:52.397Z,21.67
2022-11-10T10:08:25.725Z,21.30
2022-11-10T10:10:58.474Z,24.30
2022-11-10T10:13:45.728Z,20.27
2022-11-10T10:16:18.748Z,24.90
2022-11-10T10:18:51.798Z,22.43
2022-11-10T10:21:32.517Z,21.47
2022-11-10T10:24:10.325Z,21.40
2022-11-10T10:26:44.952Z,21.70
2022-11-10T10:29:18.290Z,17.57
2022-11-10T10:31:49.307Z,22.00
2022-11-10T10:34:20.317Z,23.17
2022-11-10T10:36:48.750Z,19.23
2022-11-10T10:39:18.488Z,21.20
2022-11-10T10:41:47.831Z,20.07
2022-11-10T10:44:17.343Z,17.27
2022-11-10T10:46:49.969Z,17.23
2022-11-10T10:49:29.697Z,19.00
2022-11-10T10:52:04.997Z,15.93
2022-11-10T10:54:34.477Z,15.37
2022-11-10T10:57:07.550Z,16.00
2022-11-10T10:59:36.446Z,15.77
2022-11-10T11:02:04.814Z,11.87
2022-11-10T11:04:36.695Z,14.57
2022-11-10T11:07:06.507Z,11.10
2022-11-10T11:09:41.712Z,12.43
2022-11-10T11:12:12.439Z,12.90
2022-11-10T11:14:45.779Z,11.07
2022-11-10T11:17:15.980Z,13.27
2022-11-10T11:19:45.925Z,12.83
2022-11-10T11:22:33.009Z,9.97
2022-11-10T11:25:06.396Z,8.47
2022-11-10T11:27:40.782Z,9.27
2022-11-10T11:30:13.144Z,10.13
2022-11-10T11:32:52.233Z,9.37
2022-11-10T11:35:27.489Z,8.63
2022-11-10T11:38:03.049Z,10.97
2022-11-10T11:40:38.461Z,11.03
2022-11-10T11:43:16.376Z,9.60
2022-11-10T11:45:51.005Z,11.77
2022-11-10T11:48:26.297Z,9.30
2022-11-10T11:50:57.647Z,9.57
2022-11-10T11:53:31.634Z,10.07
2022-11-10T11:56:05.938Z,12.73
2022-11-10T11:58:40.318Z,14.80
2022-11-10T12:01:13.375Z,13.50
2022-11-10T12:03:48.780Z,14.77
2022-11-10T12:06:41.713Z,16.97
2022-11-10T12:09:17.431Z,14.70
2022-11-10T12:11:53.755Z,15.90
2022-11-10T12:14:25.958Z,15.10
2022-11-10T12:17:00.548Z,14.83
2022-11-10T12:19:35.435Z,14.30
2022-11-10T12:22:11.391Z,13.17
2022-11-10T12:24:46.799Z,15.13
2022-11-10T12:27:16.944Z,14.80
2022-11-10T12:29:46.682Z,13.07
2022-11-10T12:32:22.272Z,12.10
2022-11-10T12:34:53.148Z,11.90
2022-11-10T12:37:27.878Z,14.23
2022-11-10T12:40:00.199Z,14.60
2022-11-10T12:42:30.764Z,13.47
2022-11-10T12:45:00.766Z,13.63
2022-11-10T12:47:31.191Z,12.90
2022-11-10T12:50:03.459Z,13.43
2022-11-10T12:52:34.360Z,11.70
2022-11-10T12:55:04.241Z,10.37
2022-11-10T12:57:33.670Z,12.57
2022-11-10T13:00:03.598Z,12.37
2022-11-10T13:02:34.393Z,14.30
2022-11-10T13:05:25.599Z,14.07
2022-11-10T13:08:06.405Z,12.43
2022-11-10T13:10:36.305Z,12.10
2022-11-10T13:13:09.138Z,12.37
2022-11-10T13:15:58.246Z,13.03
2022-11-10T13:18:51.176Z,20.63
2022-11-10T13:21:21.662Z,82.70
2022-11-10T13:24:08.759Z,14.70
2022-11-10T13:26:50.991Z,8.97
2022-11-10T13:29:29.722Z,12.33
2022-11-10T13:31:59.013Z,11.90
2022-11-10T13:34:31.912Z,12.40
2022-11-10T13:37:01.849Z,14.33
2022-11-10T13:39:31.693Z,13.27
2022-11-10T13:42:03.091Z,13.53
2022-11-10T13:44:32.879Z,14.70
2022-11-10T13:47:35.018Z,13.60
2022-11-10T13:50:09.987Z,15.73
2022-11-10T13:52:48.432Z,16.33
2022-11-10T13:55:21.196Z,16.63
2022-11-10T13:57:59.337Z,17.53
2022-11-10T14:00:28.761Z,74.60
2022-11-10T14:02:58.203Z,20.27
2022-11-10T14:05:45.404Z,20.10
2022-11-10T14:08:16.209Z,24.33
2022-11-10T14:10:47.078Z,27.97
2022-11-10T14:13:18.251Z,30.07
2022-11-10T14:15:47.943Z,33.00
2022-11-10T14:18:19.574Z,36.53
2022-11-10T14:20:49.174Z,34.17
2022-11-10T14:23:23.323Z,36.53
2022-11-10T14:25:54.446Z,34.77
2022-11-10T14:28:29.667Z,36.37
2022-11-10T14:30:58.183Z,44.10
2022-11-10T14:33:27.516Z,49.00
2022-11-10T14:35:57.346Z,40.63
2022-11-10T14:38:28.746Z,43.40
2022-11-10T14:40:58.385Z,40.53
2022-11-10T14:43:28.418Z,36.97
2022-11-10T14:45:57.033Z,35.80
2022-11-10T14:48:26.554Z,35.70
2022-11-10T14:50:55.216Z,35.87
2022-11-10T14:53:29.300Z,32.67
2022-11-10T14:56:00.269Z,37.37
2022-11-10T14:58:29.925Z,35.17
2022-11-10T15:00:58.861Z,37.43
2022-11-10T15:03:35.673Z,34.33
2022-11-10T15:06:05.076Z,36.33
2022-11-10T15:08:33.881Z,39.90
2022-11-10T15:11:03.896Z,35.87
2022-11-10T15:13:39.077Z,32.73
2022-11-10T15:16:23.412Z,35.77
2022-11-10T15:18:51.826Z,41.77
2022-11-10T15:21:21.085Z,34.13
2022-11-10T15:23:54.439Z,34.57
2022-11-10T15:26:25.187Z,30.83
2022-11-10T15:28:54.085Z,35.73
2022-11-10T15:31:24.166Z,28.37
2022-11-10T15:33:53.960Z,33.10
2022-11-10T15:36:32.105Z,32.57
2022-11-10T15:39:07.997Z,31.03
2022-11-10T15:41:38.536Z,30.33
2022-11-10T15:44:15.288Z,29.40
2022-11-10T15:46:43.721Z,28.90
2022-11-10T15:49:15.089Z,26.97
2022-11-10T15:51:43.457Z,27.37
2022-11-10T15:54:12.543Z,30.57
2022-11-10T15:56:42.386Z,27.57
2022-11-10T15:59:11.663Z,28.77
2022-11-10T16:01:40.430Z,30.53
2022-11-10T16:04:10.896Z,29.40
2022-11-10T16:06:39.528Z,30.40
2022-11-10T16:09:08.368Z,31.47
2022-11-10T16:11:36.901Z,34.03
2022-11-10T16:14:07.124Z,30.20
2022-11-10T16:16:35.622Z,35.60
2022-11-10T16:19:05.199Z,31.13
2022-11-10T16:21:33.617Z,36.17
2022-11-10T16:24:02.669Z,34.97
2022-11-10T16:26:31.305Z,32.30
2022-11-10T16:28:59.740Z,33.13
2022-11-10T16:31:31.844Z,29.93
2022-11-10T16:34:00.223Z,35.13
2022-11-10T16:36:29.788Z,33.23
2022-11-10T16:38:58.438Z,36.00
2022-11-10T16:41:26.806Z,32.70
2022-11-10T16:43:55.267Z,30.77
2022-11-10T16:46:24.300Z,30.77
2022-11-10T16:48:55.241Z,38.87
2022-11-10T16:51:28.571Z,32.90
2022-11-10T16:53:57.004Z,36.20
2022-11-10T16:56:26.834Z,36.17
2022-11-10T16:58:55.496Z,35.07
2022-11-10T17:01:25.683Z,33.63
2022-11-10T17:03:57.213Z,34.33
2022-11-10T17:06:26.375Z,34.87
2022-11-10T17:08:57.412Z,35.43
2022-11-10T17:11:25.894Z,31.60
2022-11-10T17:13:54.561Z,36.43
2022-11-10T17:16:24.836Z,36.13
2022-11-10T17:18:53.542Z,34.60
2022-11-10T17:21:26.231Z,34.53
2022-11-10T17:23:58.741Z,37.80
2022-11-10T17:26:27.206Z,36.33
2022-11-10T17:28:55.725Z,37.63
2022-11-10T17:31:24.301Z,34.60
2022-11-10T17:33:52.688Z,33.33
2022-11-10T17:36:22.708Z,33.00
2022-11-10T17:38:53.145Z,29.83
2022-11-10T17:41:22.261Z,34.40
2022-11-10T17:43:50.698Z,32.97
2022-11-10T17:46:19.127Z,30.97
2022-11-10T17:48:48.214Z,27.93
2022-11-10T17:51:20.192Z,34.97
2022-11-10T17:53:50.667Z,34.87
2022-11-10T17:56:20.704Z,33.10
2022-11-10T17:58:49.238Z,39.37
2022-11-10T18:01:18.814Z,37.33
2022-11-10T18:03:47.362Z,37.33
2022-11-10T18:06:16.326Z,34.53
2022-11-10T18:08:44.840Z,33.90
2022-11-10T18:11:14.161Z,32.03
2022-11-10T18:13:44.380Z,35.57
2022-11-10T18:16:13.907Z,34.23
2022-11-10T18:18:42.298Z,33.13
2022-11-10T18:21:11.643Z,34.27
2022-11-10T18:23:40.255Z,33.17
2022-11-10T18:26:11.636Z,32.53
2022-11-10T18:28:42.102Z,31.60
2022-11-10T18:31:13.019Z,36.73
2022-11-10T18:33:41.929Z,33.70
2022-11-10T18:36:11.282Z,37.97
2022-11-10T18:38:39.774Z,39.93
2022-11-10T18:41:26.451Z,38.30
2022-11-10T18:43:54.869Z,40.70
2022-11-10T18:46:24.801Z,48.30
2022-11-10T18:48:53.262Z,48.73
2022-11-10T18:51:21.713Z,45.63
2022-11-10T18:53:50.203Z,44.03
2022-11-10T18:56:18.629Z,67.43
2022-11-10T18:58:47.125Z,55.27
2022-11-10T19:01:15.678Z,39.67
2022-11-10T19:03:45.555Z,40.17
2022-11-10T19:06:14.718Z,36.90
2022-11-10T19:08:43.239Z,39.33
2022-11-10T19:11:12.898Z,37.20
2022-11-10T19:13:41.686Z,41.80
2022-11-10T19:16:11.150Z,37.57
2022-11-10T19:18:40.265Z,39.13
2022-11-10T19:21:11.172Z,47.83
2022-11-10T19:23:39.717Z,66.87
2022-11-10T19:26:10.048Z,37.07
2022-11-10T19:28:38.535Z,37.53
2022-11-10T19:31:07.778Z,34.93
2022-11-10T19:33:37.644Z,43.37
2022-11-10T19:36:06.392Z,39.60
2022-11-10T19:38:36.359Z,38.53
2022-11-10T19:41:05.784Z,45.30
2022-11-10T19:43:34.270Z,44.87
2022-11-10T19:46:06.576Z,43.73
2022-11-10T19:48:35.365Z,44.40
2022-11-10T19:51:04.388Z,43.27
2022-11-10T19:53:33.191Z,43.83
2022-11-10T19:56:03.685Z,36.20
2022-11-10T19:58:32.572Z,40.40
2022-11-10T20:01:02.184Z,41.73
2022-11-10T20:03:30.757Z,39.67
2022-11-10T20:05:59.978Z,39.43
2022-11-10T20:08:28.506Z,44.90
2022-11-10T20:11:00.128Z,40.57
2022-11-10T20:13:30.053Z,39.00
2022-11-10T20:15:58.529Z,37.57
2022-11-10T20:18:27.023Z,36.57
2022-11-10T20:20:55.503Z,33.73
2022-11-10T20:23:24.267Z,36.77
2022-11-10T20:26:02.533Z,34.87
2022-11-10T20:28:33.658Z,44.17
2022-11-10T20:31:02.128Z,36.80
2022-11-10T20:33:31.023Z,34.93
2022-11-10T20:36:04.550Z,37.17
2022-11-10T20:38:33.045Z,40.33
2022-11-10T20:41:05.993Z,38.93
2022-11-10T20:43:36.897Z,34.43
2022-11-10T20:46:06.170Z,34.23
2022-11-10T20:48:35.363Z,34.57
2022-11-10T20:51:09.426Z,35.27
2022-11-10T20:53:38.935Z,37.00
2022-11-10T20:56:07.742Z,32.50
2022-11-10T20:58:37.531Z,36.50
2022-11-10T21:01:06.687Z,40.53
2022-11-10T21:03:35.493Z,40.77
2022-11-10T21:06:03.885Z,40.07
2022-11-10T21:08:32.686Z,66.10
2022-11-10T21:11:02.078Z,50.97
2022-11-10T21:13:29.652Z,42.57
2022-11-10T21:16:00.038Z,44.20
2022-11-10T21:18:29.411Z,43.47
2022-11-10T21:20:57.818Z,43.47
2022-11-10T21:23:26.381Z,36.17
2022-11-10T21:25:55.294Z,44.07
2022-11-10T21:28:23.775Z,44.67
2022-11-10T21:30:52.284Z,43.93
2022-11-10T21:33:22.556Z,38.70
2022-11-10T21:35:51.133Z,69.53
2022-11-10T21:38:19.475Z,81.80
2022-11-10T21:40:47.924Z,60.37
2022-11-10T21:43:16.343Z,41.27
2022-11-10T21:45:44.699Z,43.60
2022-11-10T21:48:13.149Z,46.47
2022-11-10T21:50:43.097Z,42.93
2022-11-10T21:53:11.521Z,40.10
2022-11-10T21:55:39.991Z,38.93
2022-11-10T21:58:08.465Z,39.47
2022-11-10T22:00:36.965Z,40.20
2022-11-10T22:03:05.844Z,42.10
2022-11-10T22:05:35.265Z,40.27
2022-11-10T22:08:05.192Z,36.67
2022-11-10T22:10:51.136Z,43.83
2022-11-10T22:13:37.668Z,40.40
2022-11-10T22:16:34.374Z,37.63
2022-11-10T22:19:02.805Z,36.87
2022-11-10T22:21:31.142Z,37.40
2022-11-10T22:24:18.619Z,36.33
2022-11-10T22:26:47.077Z,38.87
2022-11-10T22:29:15.680Z,36.97
2022-11-10T22:31:44.148Z,37.27
2022-11-10T22:34:12.653Z,35.77
2022-11-10T22:36:41.092Z,35.90
2022-11-10T22:39:11.067Z,30.67
2022-11-10T22:41:56.928Z,27.37
2022-11-10T22:44:25.421Z,33.10
2022-11-10T22:46:54.263Z,33.07
2022-11-10T22:49:23.347Z,34.63
2022-11-10T22:51:52.768Z,35.53
2022-11-10T22:54:23.942Z,35.60
2022-11-10T22:56:52.668Z,34.87
2022-11-10T22:59:21.383Z,29.53
2022-11-10T23:01:49.919Z,37.77
2022-11-10T23:04:18.355Z,33.17
2022-11-10T23:06:46.830Z,36.50
2022-11-10T23:09:15.246Z,32.43
2022-11-10T23:11:45.106Z,37.10
2022-11-10T23:14:13.585Z,28.90
2022-11-10T23:16:42.078Z,38.87
2022-11-10T23:19:12.197Z,70.67
2022-11-10T23:21:40.598Z,62.67
2022-11-10T23:24:09.343Z,62.43
2022-11-10T23:26:37.773Z,65.10
2022-11-10T23:29:07.670Z,68.60
2022-11-10T23:31:36.124Z,67.53
2022-11-10T23:34:04.532Z,53.80
2022-11-10T23:36:32.928Z,49.40
2022-11-10T23:39:01.391Z,46.83
2022-11-10T23:41:29.803Z,42.73
2022-11-10T23:43:58.224Z,49.40
2022-11-10T23:46:27.923Z,55.07
2022-11-10T23:48:56.348Z,54.57
2022-11-10T23:51:25.826Z,52.20
2022-11-10T23:53:54.266Z,68.87
2022-11-10T23:56:22.760Z,57.50
2022-11-10T23:58:51.140Z,52.73
